createdAt,value
2023-08-15T00:01:33.337Z,13.23
2023-08-15T00:04:01.128Z,12.65
2023-08-15T00:06:30.335Z,12.77
2023-08-15T00:08:58.491Z,11.75
2023-08-15T00:11:26.291Z,10.82
2023-08-15T00:13:56.922Z,11.45
2023-08-15T00:16:25.265Z,10.38
2023-08-15T00:18:53.723Z,10.15
2023-08-15T00:21:21.661Z,9.65
2023-08-15T00:23:50.984Z,10.02
2023-08-15T00:26:18.837Z,9.77
2023-08-15T00:28:46.592Z,9.18
2023-08-15T00:31:14.582Z,8.68
2023-08-15T00:33:42.408Z,8.48
2023-08-15T00:36:10.331Z,7.90
2023-08-15T00:38:38.236Z,7.53
2023-08-15T00:41:07.416Z,7.65
2023-08-15T00:43:36.480Z,7.75
2023-08-15T00:46:05.360Z,7.57
2023-08-15T00:48:34.086Z,7.25
2023-08-15T00:51:03.082Z,7.18
2023-08-15T00:53:31.956Z,7.20
2023-08-15T00:56:00.040Z,7.35
2023-08-15T00:58:30.371Z,6.75
2023-08-15T01:00:58.563Z,7.00
2023-08-15T01:03:26.748Z,6.95
2023-08-15T01:05:55.471Z,6.88
2023-08-15T01:08:23.360Z,6.85
2023-08-15T01:10:51.233Z,5.95
2023-08-15T01:13:23.454Z,5.95
2023-08-15T01:15:53.189Z,6.40
2023-08-15T01:18:25.675Z,5.90
2023-08-15T01:20:54.264Z,6.20
2023-08-15T01:23:26.450Z,6.32
2023-08-15T01:25:56.903Z,6.63
2023-08-15T01:28:24.897Z,6.93
2023-08-15T01:30:56.312Z,6.55
2023-08-15T01:33:30.907Z,6.05
2023-08-15T01:36:01.362Z,6.47
2023-08-15T01:38:33.429Z,6.20
2023-08-15T01:41:02.961Z,6.63
2023-08-15T01:43:31.969Z,5.80
2023-08-15T01:46:00.060Z,5.68
2023-08-15T01:48:27.939Z,6.63
2023-08-15T01:50:55.901Z,5.55
2023-08-15T01:53:25.030Z,5.78
2023-08-15T01:55:52.904Z,6.90
2023-08-15T01:58:22.184Z,6.07
2023-08-15T02:00:50.201Z,6.47
2023-08-15T02:03:18.143Z,7.10
2023-08-15T02:05:46.017Z,6.40
2023-08-15T02:08:15.036Z,6.38
2023-08-15T02:10:43.065Z,5.70
2023-08-15T02:13:10.930Z,5.82
2023-08-15T02:15:40.123Z,6.68
2023-08-15T02:18:08.459Z,6.18
2023-08-15T02:20:36.535Z,6.80
2023-08-15T02:23:04.450Z,6.00
2023-08-15T02:25:32.332Z,5.95
2023-08-15T02:28:00.096Z,6.13
2023-08-15T02:30:27.913Z,5.68
2023-08-15T02:32:57.129Z,6.22
2023-08-15T02:35:24.953Z,6.20
2023-08-15T02:37:52.767Z,5.60
2023-08-15T02:40:20.580Z,5.55
2023-08-15T02:42:48.395Z,6.68
2023-08-15T02:45:16.204Z,5.70
2023-08-15T02:47:44.380Z,5.68
2023-08-15T02:50:13.629Z,5.28
2023-08-15T02:52:41.692Z,5.38
2023-08-15T02:55:09.951Z,5.40
2023-08-15T02:57:38.008Z,5.32
2023-08-15T03:00:06.990Z,5.22
2023-08-15T03:02:34.936Z,5.25
2023-08-15T03:05:03.209Z,5.10
2023-08-15T03:07:32.610Z,5.70
2023-08-15T03:10:00.448Z,5.72
2023-08-15T03:12:30.180Z,5.45
2023-08-15T03:14:58.336Z,5.00
2023-08-15T03:17:26.326Z,5.28
2023-08-15T03:19:54.523Z,5.40
2023-08-15T03:22:22.319Z,5.28
2023-08-15T03:24:51.767Z,5.47
2023-08-15T03:27:19.735Z,5.53
2023-08-15T03:29:48.292Z,5.53
2023-08-15T03:32:16.190Z,5.97
2023-08-15T03:34:45.115Z,5.90
2023-08-15T03:37:13.124Z,5.95
2023-08-15T03:39:40.942Z,5.30
2023-08-15T03:42:10.195Z,5.25
2023-08-15T03:44:40.791Z,5.43
2023-08-15T03:47:08.559Z,5.13
2023-08-15T03:49:36.460Z,5.07
2023-08-15T03:52:04.606Z,5.57
2023-08-15T03:54:33.456Z,5.60
2023-08-15T03:57:01.638Z,5.32
2023-08-15T03:59:31.173Z,5.22
2023-08-15T04:02:00.308Z,5.07
2023-08-15T04:04:28.230Z,5.10
2023-08-15T04:06:56.840Z,4.50
2023-08-15T04:09:24.627Z,5.28
2023-08-15T04:11:52.425Z,5.20
2023-08-15T04:14:20.345Z,5.03
2023-08-15T04:16:50.405Z,5.43
2023-08-15T04:19:18.211Z,5.72
2023-08-15T04:21:46.225Z,6.00
2023-08-15T04:24:14.075Z,5.18
2023-08-15T04:26:41.889Z,5.72
2023-08-15T04:29:10.231Z,5.35
2023-08-15T04:31:38.124Z,5.30
2023-08-15T04:34:07.737Z,5.97
2023-08-15T04:36:36.769Z,5.03
2023-08-15T04:39:05.033Z,5.78
2023-08-15T04:41:32.997Z,4.78
2023-08-15T04:44:01.688Z,5.40
2023-08-15T04:46:29.611Z,4.65
2023-08-15T04:48:57.609Z,4.82
2023-08-15T04:51:28.346Z,5.25
2023-08-15T04:53:56.797Z,4.93
2023-08-15T04:56:26.256Z,5.22
2023-08-15T04:58:54.862Z,4.90
2023-08-15T05:01:22.786Z,4.47
2023-08-15T05:03:51.853Z,4.40
2023-08-15T05:06:19.715Z,5.00
2023-08-15T05:08:49.289Z,4.63
2023-08-15T05:11:17.132Z,5.40
2023-08-15T05:13:47.081Z,5.07
2023-08-15T05:16:14.909Z,5.47
2023-08-15T05:18:42.696Z,5.07
2023-08-15T05:21:10.798Z,5.00
2023-08-15T05:23:39.995Z,4.07
2023-08-15T05:26:11.438Z,4.55
2023-08-15T05:28:39.801Z,3.95
2023-08-15T05:31:07.687Z,4.55
2023-08-15T05:33:35.589Z,4.63
2023-08-15T05:36:03.375Z,4.95
2023-08-15T05:38:31.714Z,4.78
2023-08-15T05:40:59.690Z,5.00
2023-08-15T05:43:29.071Z,3.97
2023-08-15T05:45:58.255Z,4.50
2023-08-15T05:48:26.163Z,4.70
2023-08-15T05:50:54.118Z,4.97
2023-08-15T05:53:23.692Z,5.07
2023-08-15T05:55:51.967Z,4.95
2023-08-15T05:58:20.538Z,4.82
2023-08-15T06:00:49.766Z,4.93
2023-08-15T06:03:27.580Z,4.60
2023-08-15T06:06:05.203Z,4.20
2023-08-15T06:08:34.177Z,4.47
2023-08-15T06:11:02.134Z,4.30
2023-08-15T06:13:30.307Z,4.38
2023-08-15T06:15:59.508Z,4.20
2023-08-15T06:18:27.303Z,4.00
2023-08-15T06:20:57.193Z,4.00
2023-08-15T06:23:25.492Z,4.38
2023-08-15T06:25:54.195Z,3.60
2023-08-15T06:28:22.799Z,4.20
2023-08-15T06:30:50.742Z,4.07
2023-08-15T06:33:20.321Z,4.13
2023-08-15T06:35:48.655Z,4.22
2023-08-15T06:38:16.633Z,4.25
2023-08-15T06:40:45.611Z,4.15
2023-08-15T06:43:13.522Z,4.38
2023-08-15T06:45:41.274Z,3.95
2023-08-15T06:48:09.338Z,4.20
2023-08-15T06:50:38.764Z,4.03
2023-08-15T06:53:07.396Z,3.92
2023-08-15T06:55:35.224Z,4.75
2023-08-15T06:58:04.763Z,4.30
2023-08-15T07:00:32.650Z,3.47
2023-08-15T07:03:01.140Z,4.05
2023-08-15T07:05:30.242Z,4.70
2023-08-15T07:08:00.623Z,4.10
2023-08-15T07:10:28.932Z,4.05
2023-08-15T07:12:56.856Z,4.38
2023-08-15T07:15:24.707Z,4.07
2023-08-15T07:17:52.898Z,4.38
2023-08-15T07:20:21.077Z,4.45
2023-08-15T07:22:48.976Z,4.80
2023-08-15T07:25:19.316Z,4.38
2023-08-15T07:27:47.963Z,4.80
2023-08-15T07:30:17.219Z,4.75
2023-08-15T07:32:46.578Z,4.82
2023-08-15T07:35:14.472Z,4.72
2023-08-15T07:37:42.315Z,4.75
2023-08-15T07:40:11.099Z,5.18
2023-08-15T07:42:40.640Z,4.97
2023-08-15T07:45:09.553Z,4.97
2023-08-15T07:47:39.554Z,4.93
2023-08-15T07:50:15.129Z,5.40
2023-08-15T07:52:43.310Z,5.30
2023-08-15T07:55:11.605Z,5.40
2023-08-15T07:57:41.033Z,5.53
2023-08-15T08:00:11.087Z,4.78
2023-08-15T08:02:41.549Z,5.28
2023-08-15T08:05:10.984Z,4.75
2023-08-15T08:07:39.477Z,4.60
2023-08-15T08:10:07.994Z,5.15
2023-08-15T08:12:36.161Z,4.50
2023-08-15T08:15:06.223Z,4.78
2023-08-15T08:17:34.994Z,5.22
2023-08-15T08:20:05.178Z,4.82
2023-08-15T08:22:34.393Z,5.18
2023-08-15T08:25:07.484Z,4.60
2023-08-15T08:27:35.297Z,4.78
2023-08-15T08:30:03.273Z,4.85
2023-08-15T08:32:33.736Z,4.43
2023-08-15T08:35:01.742Z,4.38
2023-08-15T08:37:31.433Z,4.10
2023-08-15T08:39:59.346Z,4.70
2023-08-15T08:42:27.508Z,4.32
2023-08-15T08:44:56.410Z,4.03
2023-08-15T08:47:26.974Z,3.78
2023-08-15T08:49:59.201Z,3.95
2023-08-15T08:52:26.982Z,4.20
2023-08-15T08:54:57.608Z,4.38
2023-08-15T08:57:30.664Z,4.28
2023-08-15T08:59:59.456Z,4.70
2023-08-15T09:02:27.327Z,4.50
2023-08-15T09:04:55.917Z,4.65
2023-08-15T09:07:25.105Z,4.03
2023-08-15T09:09:52.968Z,4.35
2023-08-15T09:12:33.565Z,4.90
2023-08-15T09:15:01.505Z,4.15
2023-08-15T09:17:30.857Z,4.38
2023-08-15T09:19:58.857Z,3.47
2023-08-15T09:22:27.993Z,3.72
2023-08-15T09:24:55.904Z,3.92
2023-08-15T09:27:23.906Z,3.20
2023-08-15T09:29:52.043Z,3.50
2023-08-15T09:32:19.986Z,3.97
2023-08-15T09:34:47.855Z,3.38
2023-08-15T09:37:15.744Z,3.38
2023-08-15T09:39:47.042Z,3.47
2023-08-15T09:42:15.220Z,3.78
2023-08-15T09:44:43.132Z,3.30
2023-08-15T09:47:11.900Z,3.33
2023-08-15T09:49:40.241Z,4.07
2023-08-15T09:52:08.195Z,3.70
2023-08-15T09:54:37.147Z,4.18
2023-08-15T09:57:06.628Z,4.00
2023-08-15T09:59:36.741Z,5.00
2023-08-15T10:02:05.310Z,4.25
2023-08-15T10:04:34.120Z,4.55
2023-08-15T10:07:02.841Z,4.20
2023-08-15T10:09:32.885Z,4.05
2023-08-15T10:12:01.223Z,3.80
2023-08-15T10:14:31.045Z,3.33
2023-08-15T10:16:59.391Z,3.58
2023-08-15T10:19:31.069Z,4.45
2023-08-15T10:21:59.574Z,4.43
2023-08-15T10:24:28.170Z,3.50
2023-08-15T10:26:59.873Z,3.40
2023-08-15T10:29:28.108Z,3.15
2023-08-15T10:32:01.364Z,4.00
2023-08-15T10:34:33.375Z,3.80
2023-08-15T10:37:16.082Z,3.35
2023-08-15T10:39:45.065Z,3.93
2023-08-15T10:42:12.887Z,3.67
2023-08-15T10:44:40.951Z,3.45
2023-08-15T10:47:23.919Z,3.80
2023-08-15T10:49:55.975Z,3.88
2023-08-15T10:52:24.053Z,3.45
2023-08-15T10:54:51.901Z,3.72
2023-08-15T10:57:22.582Z,3.85
2023-08-15T10:59:50.783Z,4.07
2023-08-15T11:02:18.637Z,3.35
2023-08-15T11:04:46.771Z,3.60
2023-08-15T11:07:25.504Z,4.32
2023-08-15T11:09:54.663Z,3.38
2023-08-15T11:12:25.287Z,3.42
2023-08-15T11:14:53.819Z,2.95
2023-08-15T11:17:21.809Z,3.55
2023-08-15T11:19:49.831Z,4.38
2023-08-15T11:22:19.446Z,4.57
2023-08-15T11:24:51.558Z,3.53
2023-08-15T11:27:19.890Z,4.07
2023-08-15T11:29:57.672Z,3.83
2023-08-15T11:32:25.657Z,3.58
2023-08-15T11:34:54.746Z,3.83
2023-08-15T11:37:24.901Z,3.60
2023-08-15T11:39:53.331Z,3.58
2023-08-15T11:42:22.587Z,3.80
2023-08-15T11:45:01.829Z,4.00
2023-08-15T11:47:31.747Z,3.65
2023-08-15T11:49:59.601Z,3.80
2023-08-15T11:52:28.841Z,4.03
2023-08-15T11:54:56.873Z,5.32
2023-08-15T11:57:35.062Z,4.22
2023-08-15T12:00:03.183Z,4.80
2023-08-15T12:02:35.325Z,4.35
2023-08-15T12:05:13.113Z,3.85
2023-08-15T12:07:42.719Z,3.83
2023-08-15T12:10:11.049Z,4.00
2023-08-15T12:12:40.318Z,4.07
2023-08-15T12:15:08.942Z,3.50
2023-08-15T12:17:37.051Z,3.67
2023-08-15T12:20:06.654Z,3.40
2023-08-15T12:22:34.630Z,3.80
2023-08-15T12:25:06.145Z,3.30
2023-08-15T12:27:33.948Z,3.00
2023-08-15T12:30:12.240Z,2.90
2023-08-15T12:32:44.002Z,3.05
2023-08-15T12:35:12.577Z,3.20
2023-08-15T12:37:40.552Z,2.90
2023-08-15T12:40:18.395Z,2.90
2023-08-15T12:42:57.264Z,2.60
2023-08-15T12:45:25.227Z,2.85
2023-08-15T12:47:53.101Z,3.45
2023-08-15T12:50:21.852Z,3.15
2023-08-15T12:52:50.382Z,3.42
2023-08-15T12:55:19.817Z,3.70
2023-08-15T12:57:47.613Z,3.40
2023-08-15T13:00:16.254Z,3.42
2023-08-15T13:02:44.153Z,3.75
2023-08-15T13:05:12.337Z,3.88
2023-08-15T13:07:40.272Z,3.42
2023-08-15T13:10:08.644Z,4.00
2023-08-15T13:12:39.252Z,3.97
2023-08-15T13:15:08.422Z,3.50
2023-08-15T13:17:37.829Z,3.40
2023-08-15T13:20:06.882Z,4.03
2023-08-15T13:22:34.727Z,3.67
2023-08-15T13:25:02.778Z,3.60
2023-08-15T13:27:30.653Z,3.30
2023-08-15T13:30:00.214Z,3.53
2023-08-15T13:32:28.776Z,3.72
2023-08-15T13:34:56.841Z,3.67
2023-08-15T13:37:24.734Z,3.50
2023-08-15T13:39:54.652Z,3.20
2023-08-15T13:42:36.227Z,3.70
2023-08-15T13:45:10.253Z,3.70
2023-08-15T13:47:39.069Z,3.58
2023-08-15T13:50:08.088Z,3.70
2023-08-15T13:52:37.778Z,3.70
2023-08-15T13:55:07.108Z,3.92
2023-08-15T13:57:34.974Z,3.90
2023-08-15T14:00:04.221Z,3.78
2023-08-15T14:02:37.038Z,3.63
2023-08-15T14:05:08.544Z,3.90
2023-08-15T14:07:36.556Z,3.63
2023-08-15T14:10:04.836Z,3.38
2023-08-15T14:12:32.748Z,3.63
2023-08-15T14:15:00.945Z,3.72
2023-08-15T14:17:28.766Z,2.88
2023-08-15T14:19:56.682Z,3.70
2023-08-15T14:22:25.874Z,3.10
2023-08-15T14:24:53.758Z,3.55
2023-08-15T14:27:21.932Z,3.70
2023-08-15T14:29:50.412Z,3.47
2023-08-15T14:32:18.614Z,3.53
2023-08-15T14:34:47.590Z,3.38
2023-08-15T14:37:15.454Z,3.38
2023-08-15T14:39:44.899Z,3.10
2023-08-15T14:42:13.152Z,3.15
2023-08-15T14:44:42.623Z,3.58
2023-08-15T14:47:10.539Z,3.20
2023-08-15T14:49:39.294Z,3.30
2023-08-15T14:52:07.280Z,2.85
2023-08-15T14:54:36.027Z,3.10
2023-08-15T14:57:05.484Z,2.95
2023-08-15T14:59:34.060Z,2.92
2023-08-15T15:02:02.649Z,3.17
2023-08-15T15:04:31.295Z,3.10
2023-08-15T15:06:59.443Z,3.00
2023-08-15T15:09:27.256Z,3.15
2023-08-15T15:11:56.415Z,3.15
2023-08-15T15:14:27.108Z,2.95
2023-08-15T15:16:56.099Z,3.35
2023-08-15T15:19:23.962Z,3.20
2023-08-15T15:21:53.838Z,3.15
2023-08-15T15:24:21.787Z,3.28
2023-08-15T15:26:50.239Z,3.55
2023-08-15T15:29:18.377Z,4.28
2023-08-15T15:31:49.404Z,2.83
2023-08-15T15:34:17.524Z,5.30
2023-08-15T15:36:46.092Z,3.70
2023-08-15T15:39:13.925Z,3.63
2023-08-15T15:41:41.732Z,3.25
2023-08-15T15:44:09.592Z,3.10
2023-08-15T15:46:48.915Z,3.35
2023-08-15T15:49:22.652Z,3.20
2023-08-15T15:51:50.868Z,3.47
2023-08-15T15:54:19.165Z,3.45
2023-08-15T15:56:48.129Z,3.53
2023-08-15T15:59:15.992Z,3.20
2023-08-15T16:01:43.971Z,3.58
2023-08-15T16:04:12.794Z,3.10
2023-08-15T16:06:42.052Z,3.00
2023-08-15T16:09:11.098Z,3.47
2023-08-15T16:11:39.479Z,3.03
2023-08-15T16:14:07.730Z,3.40
2023-08-15T16:16:36.003Z,3.00
2023-08-15T16:19:04.177Z,3.03
2023-08-15T16:21:32.258Z,2.92
2023-08-15T16:24:01.781Z,3.15
2023-08-15T16:26:30.371Z,3.20
2023-08-15T16:29:00.632Z,3.03
2023-08-15T16:31:28.583Z,3.60
2023-08-15T16:33:56.738Z,3.22
2023-08-15T16:36:24.930Z,3.15
2023-08-15T16:38:53.210Z,2.80
2023-08-15T16:41:23.190Z,4.15
2023-08-15T16:43:52.158Z,3.58
2023-08-15T16:46:20.777Z,3.03
2023-08-15T16:48:51.695Z,3.40
2023-08-15T16:51:19.784Z,3.20
2023-08-15T16:53:47.742Z,3.40
2023-08-15T16:56:17.278Z,3.08
2023-08-15T16:58:48.133Z,2.70
2023-08-15T17:01:17.297Z,3.25
2023-08-15T17:03:45.254Z,3.25
2023-08-15T17:06:13.621Z,2.78
2023-08-15T17:08:41.485Z,3.10
2023-08-15T17:11:09.824Z,3.15
2023-08-15T17:13:38.234Z,3.65
2023-08-15T17:16:08.378Z,3.97
2023-08-15T17:18:36.793Z,3.10
2023-08-15T17:21:06.596Z,3.60
2023-08-15T17:23:34.426Z,4.00
2023-08-15T17:26:02.279Z,4.28
2023-08-15T17:28:30.502Z,4.00
2023-08-15T17:31:00.759Z,4.38
2023-08-15T17:33:30.382Z,4.13
2023-08-15T17:35:58.155Z,4.07
2023-08-15T17:38:26.121Z,4.53
2023-08-15T17:40:54.038Z,4.63
2023-08-15T17:43:21.939Z,4.60
2023-08-15T17:45:49.960Z,4.03
2023-08-15T17:48:17.976Z,3.83
2023-08-15T17:50:48.352Z,4.97
2023-08-15T17:53:21.080Z,4.75
2023-08-15T17:55:50.618Z,4.30
2023-08-15T17:58:18.524Z,4.35
2023-08-15T18:00:46.349Z,4.35
2023-08-15T18:03:15.503Z,4.13
2023-08-15T18:05:43.541Z,4.18
2023-08-15T18:08:13.010Z,4.63
2023-08-15T18:10:41.342Z,4.03
2023-08-15T18:13:09.234Z,4.53
2023-08-15T18:15:37.079Z,4.88
2023-08-15T18:18:05.100Z,4.60
2023-08-15T18:20:33.151Z,4.50
2023-08-15T18:23:04.477Z,4.38
2023-08-15T18:25:33.890Z,4.72
2023-08-15T18:28:01.826Z,4.30
2023-08-15T18:30:29.875Z,3.90
2023-08-15T18:32:57.764Z,3.97
2023-08-15T18:35:25.745Z,4.80
2023-08-15T18:37:53.633Z,4.40
2023-08-15T18:40:22.067Z,4.75
2023-08-15T18:42:51.249Z,4.97
2023-08-15T18:45:19.285Z,5.20
2023-08-15T18:47:47.699Z,4.40
2023-08-15T18:50:16.848Z,4.70
2023-08-15T18:52:48.475Z,4.72
2023-08-15T18:55:16.525Z,4.63
2023-08-15T18:57:45.240Z,4.63
2023-08-15T19:00:17.627Z,4.80
2023-08-15T19:02:47.502Z,4.30
2023-08-15T19:05:17.502Z,4.93
2023-08-15T19:07:45.296Z,4.72
2023-08-15T19:10:13.453Z,5.18
2023-08-15T19:12:41.265Z,4.60
2023-08-15T19:15:09.689Z,4.60
2023-08-15T19:17:39.528Z,4.30
2023-08-15T19:20:07.892Z,5.13
2023-08-15T19:22:35.712Z,5.15
2023-08-15T19:25:03.857Z,4.60
2023-08-15T19:27:32.021Z,5.00
2023-08-15T19:30:00.879Z,5.05
2023-08-15T19:32:28.748Z,4.57
2023-08-15T19:34:58.390Z,5.10
2023-08-15T19:37:37.228Z,5.15
2023-08-15T19:40:07.770Z,5.25
2023-08-15T19:42:40.213Z,5.05
2023-08-15T19:45:09.508Z,5.60
2023-08-15T19:47:37.403Z,4.95
2023-08-15T19:50:08.232Z,5.13
2023-08-15T19:52:38.281Z,5.53
2023-08-15T19:55:06.572Z,5.70
2023-08-15T19:57:34.534Z,6.55
2023-08-15T20:00:02.478Z,5.63
2023-08-15T20:02:34.228Z,5.93
2023-08-15T20:05:02.239Z,6.10
2023-08-15T20:07:31.992Z,5.88
2023-08-15T20:10:11.047Z,6.22
2023-08-15T20:12:39.958Z,5.68
2023-08-15T20:15:08.342Z,5.78
2023-08-15T20:17:36.191Z,5.68
2023-08-15T20:20:04.411Z,5.90
2023-08-15T20:22:34.259Z,6.60
2023-08-15T20:25:02.106Z,6.82
2023-08-15T20:27:30.475Z,6.18
2023-08-15T20:29:59.159Z,6.68
2023-08-15T20:32:27.932Z,6.30
2023-08-15T20:34:56.458Z,6.75
2023-08-15T20:37:26.540Z,7.03
2023-08-15T20:39:55.863Z,6.80
2023-08-15T20:42:24.043Z,6.82
2023-08-15T20:44:52.066Z,6.97
2023-08-15T20:47:20.929Z,7.30
2023-08-15T20:49:48.988Z,6.72
2023-08-15T20:52:17.379Z,6.90
2023-08-15T20:54:45.643Z,6.72
2023-08-15T20:57:15.338Z,6.07
2023-08-15T20:59:43.232Z,7.38
2023-08-15T21:02:11.022Z,6.13
2023-08-15T21:04:39.315Z,6.30
2023-08-15T21:07:07.158Z,6.50
2023-08-15T21:09:35.019Z,6.18
2023-08-15T21:12:03.075Z,5.95
2023-08-15T21:14:32.650Z,6.50
2023-08-15T21:17:01.935Z,7.05
2023-08-15T21:19:30.768Z,6.30
2023-08-15T21:21:59.035Z,5.95
2023-08-15T21:24:27.193Z,6.13
2023-08-15T21:26:54.976Z,6.07
2023-08-15T21:29:22.756Z,5.85
2023-08-15T21:31:52.035Z,6.78
2023-08-15T21:34:19.877Z,6.40
2023-08-15T21:36:49.388Z,6.05
2023-08-15T21:39:17.219Z,6.18
2023-08-15T21:41:45.063Z,5.75
2023-08-15T21:44:12.931Z,6.38
2023-08-15T21:46:40.808Z,6.18
2023-08-15T21:49:10.378Z,6.22
2023-08-15T21:51:38.252Z,6.25
2023-08-15T21:54:06.244Z,6.50
2023-08-15T21:56:34.187Z,6.60
2023-08-15T21:59:02.036Z,6.82
2023-08-15T22:01:29.855Z,6.30
2023-08-15T22:03:58.206Z,6.28
2023-08-15T22:06:27.654Z,5.93
2023-08-15T22:08:55.722Z,6.70
2023-08-15T22:11:24.505Z,6.82
2023-08-15T22:13:52.504Z,7.07
2023-08-15T22:16:20.446Z,7.53
2023-08-15T22:18:48.344Z,6.90
2023-08-15T22:21:16.283Z,6.85
2023-08-15T22:23:47.412Z,7.70
2023-08-15T22:26:15.225Z,7.57
2023-08-15T22:28:43.191Z,7.20
2023-08-15T22:31:11.065Z,7.20
2023-08-15T22:33:38.926Z,7.68
2023-08-15T22:36:07.056Z,7.95
2023-08-15T22:38:35.159Z,7.80
2023-08-15T22:41:04.646Z,7.97
2023-08-15T22:43:32.457Z,7.80
2023-08-15T22:46:00.396Z,8.55
2023-08-15T22:48:28.349Z,7.57
2023-08-15T22:50:56.138Z,7.75
2023-08-15T22:53:23.911Z,7.72
2023-08-15T22:55:51.848Z,8.25
2023-08-15T22:58:21.205Z,7.93
2023-08-15T23:00:51.896Z,7.53
2023-08-15T23:03:20.432Z,7.47
2023-08-15T23:05:48.241Z,8.13
2023-08-15T23:08:16.046Z,8.57
2023-08-15T23:10:43.912Z,8.18
2023-08-15T23:13:11.741Z,7.63
2023-08-15T23:15:40.984Z,8.35
2023-08-15T23:18:08.891Z,8.52
2023-08-15T23:20:37.338Z,8.35
2023-08-15T23:23:05.420Z,8.25
2023-08-15T23:25:33.377Z,8.48
2023-08-15T23:28:01.227Z,8.85
2023-08-15T23:30:29.118Z,8.70
2023-08-15T23:32:58.311Z,9.13
2023-08-15T23:35:26.461Z,9.45
2023-08-15T23:37:54.363Z,9.00
2023-08-15T23:40:22.244Z,8.70
2023-08-15T23:42:50.217Z,8.55
2023-08-15T23:45:18.098Z,9.27
2023-08-15T23:47:46.030Z,8.23
2023-08-15T23:50:15.312Z,8.15
2023-08-15T23:52:43.179Z,9.13
2023-08-15T23:55:11.790Z,10.55
2023-08-15T23:57:39.689Z,9.65
